Time;durP1;ratioP1;P1;durP2;ratioP2;P2;SDS_P1;SDS_P2;PMS_P1;PMS_P2;Temp;Humidity;BMP_temperature;BMP_pressure;BME280_temperature;BME280_humidity;BME280_pressure;Samples;Min_cycle;Max_cycle;Signal;HPM_P1;HPM_P2
2023/06/14 02:02:12;;;;;;;8.25;3.40;;;;;;;;;;4378226;27;20063;-79
2023/06/14 02:04:39;;;;;;;4.57;3.40;;;;;;;;;;4279631;33;20460;-79
2023/06/14 02:07:05;;;;;;;6.82;4.40;;;;;;;;;;4280989;33;20080;-79
2023/06/14 02:09:31;;;;;;;10.15;4.53;;;;;;;;;;4280391;33;20071;-79
2023/06/14 02:11:57;;;;;;;4.95;4.10;;;;;;;;;;4281514;33;20053;-79
2023/06/14 02:14:23;;;;;;;6.22;4.68;;;;;;;;;;4281136;33;20054;-78
2023/06/14 02:16:49;;;;;;;4.95;4.12;;;;;;;;;;4278640;33;20447;-78
2023/06/14 02:19:16;;;;;;;6.40;3.80;;;;;;;;;;4281226;33;20864;-79
2023/06/14 02:21:43;;;;;;;5.68;4.80;;;;;;;;;;4281538;33;20042;-79
2023/06/14 02:24:09;;;;;;;9.93;5.40;;;;;;;;;;4279410;33;20083;-78
2023/06/14 02:26:37;;;;;;;5.45;4.78;;;;;;;;;;4284940;33;20034;-79
2023/06/14 02:29:05;;;;;;;5.50;4.25;;;;;;;;;;4282724;33;20048;-78
2023/06/14 02:31:32;;;;;;;11.77;5.10;;;;;;;;;;4273041;33;20050;-79
2023/06/14 02:33:58;;;;;;;6.20;4.55;;;;;;;;;;4273447;33;20083;-79
2023/06/14 02:36:24;;;;;;;8.70;5.15;;;;;;;;;;4275894;33;20148;-79
2023/06/14 02:38:50;;;;;;;8.27;4.78;;;;;;;;;;4264432;33;20518;-78
2023/06/14 02:41:16;;;;;;;7.15;5.45;;;;;;;;;;4263275;33;20188;-77
2023/06/14 02:43:43;;;;;;;7.10;5.28;;;;;;;;;;4267363;33;20072;-79
2023/06/14 02:46:09;;;;;;;7.07;5.03;;;;;;;;;;4269411;33;20054;-79
2023/06/14 02:48:35;;;;;;;6.07;5.07;;;;;;;;;;4271418;33;20078;-79
2023/06/14 02:51:01;;;;;;;8.65;5.57;;;;;;;;;;4266211;33;20481;-79
2023/06/14 02:53:27;;;;;;;7.03;5.35;;;;;;;;;;4252239;33;20058;-78
2023/06/14 02:55:55;;;;;;;8.80;5.18;;;;;;;;;;4246747;33;20072;-79
2023/06/14 02:58:21;;;;;;;7.22;5.53;;;;;;;;;;4253254;33;20503;-78
2023/06/14 03:00:47;;;;;;;5.07;4.53;;;;;;;;;;4251049;33;20115;-78
2023/06/14 03:03:15;;;;;;;8.35;5.40;;;;;;;;;;4253111;33;20046;-77
2023/06/14 03:05:47;;;;;;;6.68;5.62;;;;;;;;;;4251799;33;20060;-77
2023/06/14 03:08:16;;;;;;;10.80;6.13;;;;;;;;;;4253295;33;20072;-80
2023/06/14 03:10:43;;;;;;;7.87;6.15;;;;;;;;;;4251760;33;20119;-79
2023/06/14 03:13:11;;;;;;;6.95;6.28;;;;;;;;;;4266727;33;20392;-80
2023/06/14 03:15:38;;;;;;;7.25;5.82;;;;;;;;;;4236836;33;20090;-77
2023/06/14 03:18:04;;;;;;;6.72;5.03;;;;;;;;;;4237520;33;20808;-79
2023/06/14 03:20:32;;;;;;;7.28;5.70;;;;;;;;;;4235312;33;20055;-80
2023/06/14 03:23:03;;;;;;;6.90;5.20;;;;;;;;;;4224656;34;20035;-79
2023/06/14 03:25:30;;;;;;;9.48;5.50;;;;;;;;;;4212232;34;20059;-80
2023/06/14 03:27:56;;;;;;;9.77;6.07;;;;;;;;;;4209127;34;20040;-79
2023/06/14 03:30:23;;;;;;;9.77;5.75;;;;;;;;;;4199874;34;20069;-80
2023/06/14 03:32:55;;;;;;;7.30;5.47;;;;;;;;;;4205032;34;20055;-79
2023/06/14 03:35:22;;;;;;;10.15;5.85;;;;;;;;;;4209399;34;20052;-80
2023/06/14 03:37:48;;;;;;;8.45;5.22;;;;;;;;;;4209705;34;20072;-78
2023/06/14 03:40:16;;;;;;;9.15;5.90;;;;;;;;;;4208460;34;20051;-79
2023/06/14 03:42:44;;;;;;;6.82;5.10;;;;;;;;;;4196897;34;20379;-79
2023/06/14 03:45:10;;;;;;;6.90;5.20;;;;;;;;;;4197057;34;20451;-80
2023/06/14 03:47:37;;;;;;;6.55;4.68;;;;;;;;;;4221550;33;20087;-79
2023/06/14 03:50:03;;;;;;;8.60;5.97;;;;;;;;;;4221965;33;20043;-79
2023/06/14 03:52:31;;;;;;;6.55;5.40;;;;;;;;;;4206878;34;20065;-78
2023/06/14 03:54:59;;;;;;;12.80;5.07;;;;;;;;;;4233150;33;20121;-79
2023/06/14 03:57:26;;;;;;;7.37;5.12;;;;;;;;;;4238267;33;20174;-79
2023/06/14 03:59:53;;;;;;;12.68;4.60;;;;;;;;;;4236147;33;20068;-77
2023/06/14 04:02:20;;;;;;;5.87;5.05;;;;;;;;;;4236545;33;20063;-78
2023/06/14 04:04:48;;;;;;;9.02;4.82;;;;;;;;;;4236660;33;20427;-78
2023/06/14 04:07:15;;;;;;;6.18;4.65;;;;;;;;;;4220050;33;20054;-80
2023/06/14 04:09:41;;;;;;;6.43;4.70;;;;;;;;;;4210166;34;20478;-79
2023/06/14 04:12:11;;;;;;;13.38;5.37;;;;;;;;;;4202345;34;20074;-77
2023/06/14 04:14:38;;;;;;;5.80;5.20;;;;;;;;;;4208689;34;20541;-79
2023/06/14 04:17:04;;;;;;;12.90;5.10;;;;;;;;;;4209582;34;20039;-80
2023/06/14 04:19:30;;;;;;;6.25;4.85;;;;;;;;;;4209463;34;20165;-80
2023/06/14 04:21:59;;;;;;;8.77;5.28;;;;;;;;;;4209243;34;20101;-79
2023/06/14 04:24:31;;;;;;;7.70;5.47;;;;;;;;;;4206165;34;20042;-81
2023/06/14 04:26:58;;;;;;;9.27;5.03;;;;;;;;;;4210133;34;20048;-80
2023/06/14 04:29:26;;;;;;;11.10;5.07;;;;;;;;;;4209651;34;20056;-79
2023/06/14 04:31:54;;;;;;;8.27;5.28;;;;;;;;;;4198375;34;20069;-79
2023/06/14 04:34:21;;;;;;;6.30;4.93;;;;;;;;;;4193839;34;20065;-79
2023/06/14 04:36:52;;;;;;;7.12;5.65;;;;;;;;;;4195736;34;20051;-78
2023/06/14 04:39:20;;;;;;;13.40;4.68;;;;;;;;;;4243189;33;20148;-79
2023/06/14 04:41:47;;;;;;;9.10;5.28;;;;;;;;;;4251723;33;20115;-80
2023/06/14 04:44:16;;;;;;;8.13;5.47;;;;;;;;;;4234100;33;20425;-79
2023/06/14 04:46:47;;;;;;;7.50;5.65;;;;;;;;;;4210779;34;20315;-80
2023/06/14 04:49:15;;;;;;;11.48;5.35;;;;;;;;;;4209364;34;20104;-80
2023/06/14 04:51:42;;;;;;;14.10;6.00;;;;;;;;;;4209604;34;20047;-79
2023/06/14 04:54:15;;;;;;;10.02;6.20;;;;;;;;;;4208460;34;20073;-79
2023/06/14 04:56:45;;;;;;;7.35;5.35;;;;;;;;;;4222151;34;20050;-80
2023/06/14 04:59:12;;;;;;;7.68;5.90;;;;;;;;;;4223632;34;20039;-79
2023/06/14 05:01:39;;;;;;;7.43;5.37;;;;;;;;;;4227685;33;20078;-79
2023/06/14 05:04:05;;;;;;;8.00;5.28;;;;;;;;;;4236717;33;20046;-78
2023/06/14 05:06:31;;;;;;;9.00;5.40;;;;;;;;;;4221710;34;20268;-78
2023/06/14 05:08:58;;;;;;;12.00;5.47;;;;;;;;;;4223061;34;20405;-79
2023/06/14 05:11:26;;;;;;;7.05;5.10;;;;;;;;;;4222180;34;20393;-78
2023/06/14 05:13:52;;;;;;;7.32;5.25;;;;;;;;;;4223498;34;20426;-78
2023/06/14 05:16:19;;;;;;;8.65;5.25;;;;;;;;;;4223354;34;20047;-79
2023/06/14 05:18:47;;;;;;;7.15;5.28;;;;;;;;;;4221300;34;20197;-78
2023/06/14 05:21:17;;;;;;;9.73;5.30;;;;;;;;;;4223094;34;20066;-79
2023/06/14 05:23:44;;;;;;;8.50;5.60;;;;;;;;;;4223371;33;20038;-80
2023/06/14 05:26:11;;;;;;;12.50;5.30;;;;;;;;;;4203347;34;20050;-79
2023/06/14 05:28:37;;;;;;;8.13;4.75;;;;;;;;;;4216659;34;20161;-78
2023/06/14 05:31:03;;;;;;;11.18;5.18;;;;;;;;;;4219208;34;20067;-79
2023/06/14 05:33:29;;;;;;;6.93;4.45;;;;;;;;;;4222950;34;20097;-79
2023/06/14 05:35:55;;;;;;;10.25;4.70;;;;;;;;;;4221785;33;20080;-80
2023/06/14 05:38:22;;;;;;;6.10;4.55;;;;;;;;;;4197587;34;20102;-79
2023/06/14 05:40:48;;;;;;;8.25;4.80;;;;;;;;;;4192469;34;20864;-79
2023/06/14 05:43:14;;;;;;;6.03;4.68;;;;;;;;;;4225472;33;20043;-79
2023/06/14 05:45:40;;;;;;;7.53;5.32;;;;;;;;;;4236196;33;20506;-78
2023/06/14 05:48:06;;;;;;;7.40;5.20;;;;;;;;;;4236300;33;20062;-78
2023/06/14 05:50:33;;;;;;;7.97;5.45;;;;;;;;;;4233508;33;20047;-79
2023/06/14 05:52:59;;;;;;;7.68;5.12;;;;;;;;;;4222383;33;20485;-77
2023/06/14 05:55:26;;;;;;;8.20;4.47;;;;;;;;;;4220273;33;20062;-78
2023/06/14 05:57:52;;;;;;;6.72;5.07;;;;;;;;;;4221845;33;20042;-78
2023/06/14 06:00:19;;;;;;;7.53;4.78;;;;;;;;;;4229154;33;20425;-80
2023/06/14 06:02:47;;;;;;;5.90;4.80;;;;;;;;;;4234439;33;20469;-79
2023/06/14 06:05:13;;;;;;;6.85;4.45;;;;;;;;;;4232184;33;20457;-79
2023/06/14 06:07:40;;;;;;;13.95;4.85;;;;;;;;;;4236359;33;20047;-80
2023/06/14 06:10:06;;;;;;;16.75;4.82;;;;;;;;;;4235167;33;20623;-80
2023/06/14 06:12:32;;;;;;;8.20;4.40;;;;;;;;;;4235042;33;20043;-79
2023/06/14 06:14:59;;;;;;;12.90;4.37;;;;;;;;;;4235714;33;20068;-80
2023/06/14 06:17:26;;;;;;;4.05;3.75;;;;;;;;;;4246577;33;20034;-77
2023/06/14 06:19:52;;;;;;;5.20;4.10;;;;;;;;;;4250127;33;20054;-78
2023/06/14 06:22:18;;;;;;;7.53;4.55;;;;;;;;;;4240017;33;20060;-78
2023/06/14 06:24:44;;;;;;;6.30;4.37;;;;;;;;;;4235543;33;20049;-78
2023/06/14 06:27:12;;;;;;;6.68;4.65;;;;;;;;;;4257766;33;20124;-78
2023/06/14 06:29:38;;;;;;;10.45;4.07;;;;;;;;;;4262102;33;20479;-78
2023/06/14 06:32:05;;;;;;;7.93;4.57;;;;;;;;;;4264673;33;20045;-76
2023/06/14 06:34:31;;;;;;;10.30;4.85;;;;;;;;;;4248392;33;20046;-76
2023/06/14 06:36:57;;;;;;;6.93;4.05;;;;;;;;;;4250011;33;20582;-77
2023/06/14 06:39:23;;;;;;;3.83;3.42;;;;;;;;;;4233372;33;20059;-78
2023/06/14 06:41:49;;;;;;;6.55;4.75;;;;;;;;;;4232762;33;20064;-78
2023/06/14 06:44:18;;;;;;;4.97;3.97;;;;;;;;;;4234408;33;20055;-78
2023/06/14 06:46:47;;;;;;;4.78;4.10;;;;;;;;;;4221406;33;20101;-79
2023/06/14 06:49:14;;;;;;;8.75;3.97;;;;;;;;;;4234096;33;20081;-78
2023/06/14 06:51:41;;;;;;;5.37;3.75;;;;;;;;;;4227775;33;20055;-78
2023/06/14 06:54:08;;;;;;;11.85;4.75;;;;;;;;;;4220880;34;20058;-78
2023/06/14 06:56:34;;;;;;;8.43;3.97;;;;;;;;;;4209958;34;20139;-78
2023/06/14 06:59:01;;;;;;;10.43;4.45;;;;;;;;;;4221752;33;20081;-80
2023/06/14 07:01:28;;;;;;;8.00;4.53;;;;;;;;;;4221186;34;20232;-79
2023/06/14 07:03:55;;;;;;;8.52;4.47;;;;;;;;;;4219527;34;20062;-82
2023/06/14 07:06:21;;;;;;;6.47;4.53;;;;;;;;;;4208096;34;20082;-81
2023/06/14 07:08:50;;;;;;;7.10;4.60;;;;;;;;;;4193356;34;20475;-82
2023/06/14 07:11:19;;;;;;;9.13;4.50;;;;;;;;;;4207842;34;20220;-83
2023/06/14 07:13:46;;;;;;;7.12;4.18;;;;;;;;;;4219699;34;20113;-81
2023/06/14 07:16:12;;;;;;;5.60;4.37;;;;;;;;;;4221002;33;20081;-81
2023/06/14 07:18:38;;;;;;;8.15;4.10;;;;;;;;;;4220479;34;20386;-81
2023/06/14 07:21:04;;;;;;;8.25;4.10;;;;;;;;;;4220325;33;20069;-80
2023/06/14 07:23:31;;;;;;;4.40;4.00;;;;;;;;;;4220838;33;20063;-80
2023/06/14 07:25:57;;;;;;;4.18;3.65;;;;;;;;;;4220458;33;20109;-80
2023/06/14 07:28:23;;;;;;;8.30;4.30;;;;;;;;;;4219152;33;20059;-82
2023/06/14 07:30:50;;;;;;;3.87;3.08;;;;;;;;;;4234867;33;20092;-83
2023/06/14 07:33:16;;;;;;;3.55;3.28;;;;;;;;;;4235549;33;20382;-82
2023/06/14 07:35:42;;;;;;;3.30;2.92;;;;;;;;;;4238704;33;20076;-80
2023/06/14 07:38:08;;;;;;;9.77;3.78;;;;;;;;;;4239116;33;20483;-81
2023/06/14 07:40:34;;;;;;;5.75;3.03;;;;;;;;;;4250802;33;20050;-82
2023/06/14 07:43:02;;;;;;;7.35;3.20;;;;;;;;;;4254840;33;20656;-82
2023/06/14 07:45:28;;;;;;;5.03;3.40;;;;;;;;;;4267236;33;20076;-81
2023/06/14 07:47:55;;;;;;;3.83;3.12;;;;;;;;;;4270605;33;20062;-82
2023/06/14 07:50:21;;;;;;;8.40;3.58;;;;;;;;;;4268593;33;20053;-82
2023/06/14 07:52:48;;;;;;;6.28;3.37;;;;;;;;;;4258458;33;20088;-80
2023/06/14 07:55:18;;;;;;;8.00;3.78;;;;;;;;;;4268574;33;20478;-80
2023/06/14 07:57:46;;;;;;;10.57;3.58;;;;;;;;;;4267244;33;20072;-80
2023/06/14 08:00:15;;;;;;;5.43;3.42;;;;;;;;;;4266522;33;20440;-79
2023/06/14 08:02:43;;;;;;;6.30;3.72;;;;;;;;;;4264997;33;20088;-78
2023/06/14 08:05:12;;;;;;;5.12;3.25;;;;;;;;;;4266819;33;20057;-79
2023/06/14 08:07:38;;;;;;;4.15;3.12;;;;;;;;;;4266478;33;20072;-78
2023/06/14 08:10:06;;;;;;;4.07;3.15;;;;;;;;;;4255456;33;20104;-78
2023/06/14 08:12:33;;;;;;;3.45;3.17;;;;;;;;;;4263902;33;20461;-79
2023/06/14 08:15:00;;;;;;;4.55;3.55;;;;;;;;;;4263868;33;20059;-78
2023/06/14 08:17:26;;;;;;;9.07;3.50;;;;;;;;;;4266828;33;20224;-79
2023/06/14 08:19:57;;;;;;;5.97;3.60;;;;;;;;;;4266611;33;20062;-78
2023/06/14 08:22:24;;;;;;;5.47;3.42;;;;;;;;;;4268169;33;20766;-81
2023/06/14 08:24:52;;;;;;;8.20;3.65;;;;;;;;;;4266070;33;20054;-76
2023/06/14 08:27:18;;;;;;;4.70;3.12;;;;;;;;;;4258850;33;20064;-78
2023/06/14 08:29:45;;;;;;;5.80;3.15;;;;;;;;;;4254322;33;20080;-79
2023/06/14 08:32:11;;;;;;;4.85;3.67;;;;;;;;;;4265024;33;20046;-79
2023/06/14 08:34:37;;;;;;;6.60;3.53;;;;;;;;;;4261937;33;20455;-80
2023/06/14 08:37:03;;;;;;;4.05;2.92;;;;;;;;;;4247884;33;20045;-78
2023/06/14 08:39:30;;;;;;;5.28;3.42;;;;;;;;;;4263754;33;20956;-78
2023/06/14 08:41:57;;;;;;;4.78;3.53;;;;;;;;;;4235098;33;20085;-81
2023/06/14 08:44:23;;;;;;;7.43;3.28;;;;;;;;;;4233924;33;20109;-82
2023/06/14 08:46:51;;;;;;;5.62;3.30;;;;;;;;;;4237142;33;20536;-78
2023/06/14 08:49:18;;;;;;;5.85;2.87;;;;;;;;;;4232800;33;20067;-80
2023/06/14 08:51:44;;;;;;;5.75;3.25;;;;;;;;;;4237141;33;20090;-79
2023/06/14 08:54:11;;;;;;;11.00;3.30;;;;;;;;;;4214357;34;20050;-79
2023/06/14 08:56:37;;;;;;;4.25;3.83;;;;;;;;;;4178690;34;20092;-79
2023/06/14 08:59:06;;;;;;;8.07;3.50;;;;;;;;;;4180442;34;20068;-79
2023/06/14 09:01:36;;;;;;;8.57;3.65;;;;;;;;;;4178863;34;20696;-78
2023/06/14 09:04:05;;;;;;;7.07;3.58;;;;;;;;;;4177748;34;20091;-82
2023/06/14 09:06:31;;;;;;;4.05;3.37;;;;;;;;;;4178913;34;20073;-80
2023/06/14 09:08:58;;;;;;;8.10;3.67;;;;;;;;;;4175346;34;20519;-82
2023/06/14 09:11:25;;;;;;;11.32;3.70;;;;;;;;;;4187349;34;20151;-78
2023/06/14 09:13:51;;;;;;;12.13;3.75;;;;;;;;;;4192742;34;20410;-84
2023/06/14 09:16:18;;;;;;;7.28;4.00;;;;;;;;;;4190037;34;20081;-81
2023/06/14 09:18:45;;;;;;;5.50;3.90;;;;;;;;;;4188681;34;20065;-80
2023/06/14 09:21:11;;;;;;;5.60;3.78;;;;;;;;;;4206591;34;20047;-83
2023/06/14 09:23:39;;;;;;;3.80;3.45;;;;;;;;;;4206452;34;20493;-80
2023/06/14 09:26:22;;;;;;;8.77;3.40;;;;;;;;;;4218692;33;20204;-80
2023/06/14 09:28:49;;;;;;;6.68;3.22;;;;;;;;;;4254542;33;20072;-81
2023/06/14 09:31:17;;;;;;;7.70;3.62;;;;;;;;;;4256107;33;20046;-82
2023/06/14 09:33:47;;;;;;;3.67;3.37;;;;;;;;;;4250264;33;20481;-80
2023/06/14 09:36:18;;;;;;;3.72;2.75;;;;;;;;;;4250560;33;20042;-81
2023/06/14 09:39:09;;;;;;;4.30;3.30;;;;;;;;;;4263847;33;20034;-80
2023/06/14 09:41:36;;;;;;;5.80;3.40;;;;;;;;;;4256115;33;20310;-81
2023/06/14 09:44:03;;;;;;;9.60;3.65;;;;;;;;;;4262315;33;20030;-82
2023/06/14 09:46:30;;;;;;;13.75;3.37;;;;;;;;;;4259477;33;20068;-82
2023/06/14 09:48:57;;;;;;;8.32;3.40;;;;;;;;;;4250355;33;20543;-76
2023/06/14 09:51:23;;;;;;;4.65;3.30;;;;;;;;;;4252220;33;20424;-81
2023/06/14 09:53:50;;;;;;;3.92;2.72;;;;;;;;;;4247653;33;20384;-80
2023/06/14 09:56:20;;;;;;;6.03;3.60;;;;;;;;;;4258153;33;20221;-81
2023/06/14 09:58:46;;;;;;;4.07;2.90;;;;;;;;;;4252915;33;20247;-84
2023/06/14 10:01:13;;;;;;;4.85;2.62;;;;;;;;;;4234076;33;20054;-81
2023/06/14 10:03:40;;;;;;;4.32;2.78;;;;;;;;;;4243600;33;20080;-83
2023/06/14 10:06:08;;;;;;;9.35;3.83;;;;;;;;;;4239602;33;20070;-81
2023/06/14 10:08:36;;;;;;;3.10;2.80;;;;;;;;;;4210742;34;20440;-82
2023/06/14 10:11:03;;;;;;;23.08;11.30;;;;;;;;;;4207535;34;20193;-77
2023/06/14 10:13:32;;;;;;;8.90;3.08;;;;;;;;;;4207030;34;20177;-82
2023/06/14 10:16:05;;;;;;;6.80;3.37;;;;;;;;;;4208458;34;20080;-82
2023/06/14 10:18:38;;;;;;;3.42;3.00;;;;;;;;;;4208237;34;20440;-80
2023/06/14 10:21:08;;;;;;;7.73;3.10;;;;;;;;;;4227056;33;20249;-78
2023/06/14 10:23:38;;;;;;;5.22;3.37;;;;;;;;;;4245186;33;20167;-84
2023/06/14 10:26:04;;;;;;;3.40;3.10;;;;;;;;;;4234852;33;20073;-79
2023/06/14 10:28:32;;;;;;;12.95;3.10;;;;;;;;;;4231169;33;20046;-82
2023/06/14 10:31:08;;;;;;;9.95;3.10;;;;;;;;;;4234033;33;20405;-81
2023/06/14 10:33:35;;;;;;;5.85;2.85;;;;;;;;;;4222142;33;20069;-80
2023/06/14 10:36:08;;;;;;;6.22;2.90;;;;;;;;;;4215237;33;20775;-81
2023/06/14 10:38:36;;;;;;;4.87;3.40;;;;;;;;;;4214512;33;20813;-83
2023/06/14 10:41:03;;;;;;;2.75;2.55;;;;;;;;;;4214485;33;20460;-83
2023/06/14 10:43:29;;;;;;;7.25;2.90;;;;;;;;;;4218375;33;20055;-81
2023/06/14 10:46:11;;;;;;;9.15;3.25;;;;;;;;;;4225744;33;20166;-80
2023/06/14 10:48:44;;;;;;;8.25;3.25;;;;;;;;;;4232599;33;20354;-81
2023/06/14 10:51:20;;;;;;;4.55;3.15;;;;;;;;;;4227001;33;20819;-78
2023/06/14 10:53:51;;;;;;;5.72;2.92;;;;;;;;;;4219884;33;20078;-77
2023/06/14 10:56:24;;;;;;;3.37;2.50;;;;;;;;;;4220402;34;20063;-76
2023/06/14 10:58:51;;;;;;;3.20;2.28;;;;;;;;;;4220997;33;20183;-78
2023/06/14 11:01:23;;;;;;;3.42;2.90;;;;;;;;;;4365918;28;20133;-77
2023/06/14 11:03:55;;;;;;;2.47;2.28;;;;;;;;;;4218498;33;21625;-77
2023/06/14 11:06:28;;;;;;;12.98;2.78;;;;;;;;;;4224004;33;20046;-78
2023/06/14 11:09:09;;;;;;;5.35;2.90;;;;;;;;;;4228792;33;20068;-76
2023/06/14 11:11:36;;;;;;;3.80;3.33;;;;;;;;;;4224917;33;20051;-76
2023/06/14 11:14:02;;;;;;;5.22;3.33;;;;;;;;;;4213982;33;20047;-80
2023/06/14 11:16:29;;;;;;;3.72;3.03;;;;;;;;;;4215360;33;20072;-79
2023/06/14 11:18:55;;;;;;;6.85;3.35;;;;;;;;;;4217367;33;20046;-77
2023/06/14 11:21:21;;;;;;;4.55;2.85;;;;;;;;;;4215322;33;20069;-79
2023/06/14 11:23:51;;;;;;;6.78;3.40;;;;;;;;;;4214187;33;20035;-78
2023/06/14 11:26:26;;;;;;;4.85;2.85;;;;;;;;;;4217865;33;20101;-79
2023/06/14 11:28:54;;;;;;;9.13;3.28;;;;;;;;;;4207688;34;20074;-78
2023/06/14 11:31:21;;;;;;;6.60;3.08;;;;;;;;;;4209041;34;20047;-79
2023/06/14 11:33:50;;;;;;;10.07;3.92;;;;;;;;;;4209750;34;20031;-79
2023/06/14 11:36:16;;;;;;;5.78;2.78;;;;;;;;;;4210628;33;20051;-79
2023/06/14 11:38:43;;;;;;;9.88;3.70;;;;;;;;;;4235841;33;20035;-79
2023/06/14 11:41:10;;;;;;;16.02;3.62;;;;;;;;;;4237658;33;20104;-82
2023/06/14 11:43:37;;;;;;;9.93;2.58;;;;;;;;;;4237393;33;20067;-82
2023/06/14 11:46:03;;;;;;;3.85;3.20;;;;;;;;;;4236729;33;20056;-80
2023/06/14 11:48:39;;;;;;;6.80;2.78;;;;;;;;;;4237953;33;20034;-81
2023/06/14 11:51:06;;;;;;;6.00;3.75;;;;;;;;;;4235832;33;20062;-78
2023/06/14 11:53:33;;;;;;;30.15;16.23;;;;;;;;;;4231566;33;21988;-78
2023/06/14 11:55:59;;;;;;;6.80;3.12;;;;;;;;;;4237487;33;20479;-80
2023/06/14 11:58:27;;;;;;;7.18;3.20;;;;;;;;;;4245529;33;20058;-80
2023/06/14 12:00:53;;;;;;;4.53;3.03;;;;;;;;;;4243119;33;20068;-80
2023/06/14 12:03:25;;;;;;;5.32;3.53;;;;;;;;;;4243848;33;20084;-78
2023/06/14 12:06:09;;;;;;;4.72;3.33;;;;;;;;;;4242984;33;20403;-82
2023/06/14 12:08:39;;;;;;;4.55;3.17;;;;;;;;;;4245719;33;20038;-78
2023/06/14 12:11:15;;;;;;;7.70;2.90;;;;;;;;;;4234719;33;20058;-79
2023/06/14 12:13:41;;;;;;;3.08;2.78;;;;;;;;;;4217186;34;20194;-81
2023/06/14 12:16:11;;;;;;;6.75;3.53;;;;;;;;;;4223499;33;20086;-78
2023/06/14 12:18:39;;;;;;;4.62;3.40;;;;;;;;;;4219274;33;20082;-79
2023/06/14 12:21:06;;;;;;;9.48;2.80;;;;;;;;;;4215617;33;20090;-80
2023/06/14 12:23:45;;;;;;;2.83;2.62;;;;;;;;;;4219262;33;20050;-78
2023/06/14 12:26:12;;;;;;;5.80;2.40;;;;;;;;;;4215500;34;20040;-78
2023/06/14 12:28:41;;;;;;;12.70;2.87;;;;;;;;;;4218896;33;20035;-78
2023/06/14 12:31:11;;;;;;;8.98;2.95;;;;;;;;;;4221357;33;20085;-78
2023/06/14 12:33:37;;;;;;;3.40;2.87;;;;;;;;;;4222715;33;20074;-79
2023/06/14 12:36:09;;;;;;;8.60;4.00;;;;;;;;;;4218390;33;20099;-79
2023/06/14 12:38:37;;;;;;;4.72;2.85;;;;;;;;;;4218482;33;20517;-78
2023/06/14 12:41:04;;;;;;;8.68;3.17;;;;;;;;;;4223305;33;20124;-78
2023/06/14 12:43:30;;;;;;;3.47;2.50;;;;;;;;;;4235271;33;20393;-84
2023/06/14 12:45:56;;;;;;;10.18;2.87;;;;;;;;;;4234494;33;20181;-82
2023/06/14 12:48:23;;;;;;;3.72;1.90;;;;;;;;;;4235244;33;20432;-79
2023/06/14 12:50:49;;;;;;;6.57;1.90;;;;;;;;;;4235203;33;20441;-79
2023/06/14 12:53:15;;;;;;;2.35;1.62;;;;;;;;;;4232337;33;20058;-80
2023/06/14 12:55:41;;;;;;;1.92;1.83;;;;;;;;;;4239885;33;20172;-80
2023/06/14 12:58:07;;;;;;;1.87;1.77;;;;;;;;;;4249352;33;20070;-78
2023/06/14 13:00:34;;;;;;;3.65;2.58;;;;;;;;;;4249086;33;20357;-78
2023/06/14 13:03:00;;;;;;;9.38;3.10;;;;;;;;;;4258807;33;20480;-78
2023/06/14 13:05:27;;;;;;;7.78;3.20;;;;;;;;;;4260822;33;20214;-78
2023/06/14 13:07:53;;;;;;;6.12;4.20;;;;;;;;;;4248773;33;20187;-76
2023/06/14 13:10:19;;;;;;;9.80;4.22;;;;;;;;;;4249497;33;20042;-76
2023/06/14 13:12:45;;;;;;;5.35;4.37;;;;;;;;;;4248241;33;20064;-76
2023/06/14 13:15:11;;;;;;;9.23;5.50;;;;;;;;;;4242686;33;20086;-76
2023/06/14 13:17:38;;;;;;;6.15;4.57;;;;;;;;;;4232923;33;20112;-78
2023/06/14 13:20:08;;;;;;;9.63;4.97;;;;;;;;;;4234001;33;20170;-77
2023/06/14 13:22:34;;;;;;;7.68;4.30;;;;;;;;;;4234493;33;20190;-77
2023/06/14 13:25:01;;;;;;;7.00;4.60;;;;;;;;;;4235199;33;20513;-77
2023/06/14 13:27:27;;;;;;;9.23;3.60;;;;;;;;;;4232418;33;20628;-77
2023/06/14 13:29:54;;;;;;;8.60;3.70;;;;;;;;;;4219721;33;20066;-77
2023/06/14 13:32:20;;;;;;;9.50;4.75;;;;;;;;;;4218410;34;20047;-78
2023/06/14 13:34:47;;;;;;;8.57;5.07;;;;;;;;;;4214063;34;20047;-77
2023/06/14 13:37:13;;;;;;;10.20;4.78;;;;;;;;;;4212869;34;20205;-77
2023/06/14 13:39:40;;;;;;;6.60;4.85;;;;;;;;;;4217656;33;20046;-78
2023/06/14 13:42:06;;;;;;;11.35;4.62;;;;;;;;;;4218996;33;20072;-79
2023/06/14 13:44:33;;;;;;;13.13;5.12;;;;;;;;;;4212321;34;20071;-78
2023/06/14 13:47:00;;;;;;;7.87;4.70;;;;;;;;;;4206814;33;20067;-78
2023/06/14 13:49:26;;;;;;;6.20;4.68;;;;;;;;;;4205263;33;20062;-77
2023/06/14 13:51:52;;;;;;;8.18;4.35;;;;;;;;;;4208373;34;20055;-78
2023/06/14 13:54:20;;;;;;;5.47;4.82;;;;;;;;;;4207449;34;20429;-80
2023/06/14 13:56:46;;;;;;;6.00;4.80;;;;;;;;;;4209009;34;20071;-80
2023/06/14 13:59:13;;;;;;;9.77;5.20;;;;;;;;;;4207033;34;20413;-77
2023/06/14 14:01:39;;;;;;;6.18;4.37;;;;;;;;;;4217148;33;20085;-80
2023/06/14 14:04:06;;;;;;;11.00;5.85;;;;;;;;;;4221300;33;20054;-79
2023/06/14 14:06:32;;;;;;;7.75;4.47;;;;;;;;;;4218609;34;20107;-78
2023/06/14 14:08:58;;;;;;;6.25;4.82;;;;;;;;;;4211407;34;20098;-80
2023/06/14 14:11:25;;;;;;;4.65;4.20;;;;;;;;;;4208904;34;20056;-76
2023/06/14 14:13:51;;;;;;;6.55;4.53;;;;;;;;;;4208775;34;20154;-79
2023/06/14 14:16:19;;;;;;;13.15;5.60;;;;;;;;;;4210139;33;20207;-79
2023/06/14 14:18:46;;;;;;;8.60;4.70;;;;;;;;;;4220101;33;20559;-79
2023/06/14 14:21:18;;;;;;;7.28;4.95;;;;;;;;;;4203164;34;20124;-77
2023/06/14 14:23:45;;;;;;;7.28;5.65;;;;;;;;;;4200860;34;20075;-79
2023/06/14 14:26:11;;;;;;;6.90;4.20;;;;;;;;;;4199396;34;20964;-79
2023/06/14 14:28:38;;;;;;;6.62;5.05;;;;;;;;;;4203485;34;20580;-77
2023/06/14 14:31:03;;;;;;;10.13;5.18;;;;;;;;;;4204134;34;20063;-80
2023/06/14 14:33:30;;;;;;;9.30;5.47;;;;;;;;;;4204774;34;20043;-79
2023/06/14 14:35:56;;;;;;;9.30;5.57;;;;;;;;;;4203289;34;20115;-77
2023/06/14 14:38:22;;;;;;;8.10;6.10;;;;;;;;;;4212709;33;20361;-79
2023/06/14 14:40:49;;;;;;;10.75;5.50;;;;;;;;;;4202934;34;20081;-77
2023/06/14 14:43:15;;;;;;;12.18;5.65;;;;;;;;;;4206323;34;20417;-76
2023/06/14 14:45:41;;;;;;;8.20;5.78;;;;;;;;;;4206607;34;20039;-76
2023/06/14 14:48:07;;;;;;;8.25;5.72;;;;;;;;;;4205668;34;20062;-76
2023/06/14 14:50:34;;;;;;;6.25;5.20;;;;;;;;;;4210854;34;20296;-79
2023/06/14 14:53:00;;;;;;;17.73;6.25;;;;;;;;;;4237860;33;20062;-79
2023/06/14 14:55:26;;;;;;;9.20;5.03;;;;;;;;;;4249470;33;20577;-78
2023/06/14 14:57:53;;;;;;;15.32;8.30;;;;;;;;;;4248611;33;20383;-78
2023/06/14 15:00:19;;;;;;;11.23;6.05;;;;;;;;;;4247299;33;20054;-79
2023/06/14 15:02:45;;;;;;;8.43;5.78;;;;;;;;;;4244133;33;20836;-78
2023/06/14 15:05:11;;;;;;;13.35;5.62;;;;;;;;;;4244233;33;20042;-77
2023/06/14 15:07:39;;;;;;;6.03;5.43;;;;;;;;;;4247968;33;20086;-79
2023/06/14 15:10:07;;;;;;;6.60;4.93;;;;;;;;;;4246386;33;20403;-77
2023/06/14 15:12:34;;;;;;;17.48;6.97;;;;;;;;;;4263246;33;20104;-78
2023/06/14 15:15:00;;;;;;;12.50;4.75;;;;;;;;;;4263369;33;20109;-79
2023/06/14 15:17:27;;;;;;;6.32;4.85;;;;;;;;;;4247450;33;20129;-79
2023/06/14 15:19:53;;;;;;;9.13;5.53;;;;;;;;;;4246055;33;20047;-78
2023/06/14 15:22:19;;;;;;;10.82;6.53;;;;;;;;;;4234419;33;20400;-78
2023/06/14 15:24:45;;;;;;;10.27;6.70;;;;;;;;;;4237256;33;20485;-78
2023/06/14 15:27:12;;;;;;;12.45;6.10;;;;;;;;;;4236547;33;20357;-79
2023/06/14 15:29:39;;;;;;;11.15;6.10;;;;;;;;;;4234006;33;20081;-79
2023/06/14 15:32:06;;;;;;;7.95;6.10;;;;;;;;;;4236139;33;20115;-80
2023/06/14 15:34:32;;;;;;;5.60;5.10;;;;;;;;;;4236592;33;20050;-85
2023/06/14 15:36:58;;;;;;;7.18;4.85;;;;;;;;;;4234232;33;20053;-76
2023/06/14 15:39:26;;;;;;;6.12;4.47;;;;;;;;;;4220833;33;20059;-77
2023/06/14 15:41:53;;;;;;;6.25;3.90;;;;;;;;;;4221372;33;20059;-77
2023/06/14 15:44:19;;;;;;;5.55;4.25;;;;;;;;;;4216848;33;20074;-78
2023/06/14 15:46:45;;;;;;;6.60;4.97;;;;;;;;;;4210913;33;20075;-78
2023/06/14 15:49:13;;;;;;;6.80;5.35;;;;;;;;;;4214813;33;20123;-79
2023/06/14 15:51:40;;;;;;;6.57;5.82;;;;;;;;;;4237375;33;20068;-79
2023/06/14 15:54:06;;;;;;;7.82;5.90;;;;;;;;;;4242483;33;20057;-76
2023/06/14 15:56:32;;;;;;;10.23;6.53;;;;;;;;;;4248473;33;20057;-78
2023/06/14 15:58:58;;;;;;;19.27;7.82;;;;;;;;;;4250158;33;20113;-78
2023/06/14 16:01:26;;;;;;;11.57;7.68;;;;;;;;;;4232752;33;20044;-78
2023/06/14 16:03:52;;;;;;;6.93;5.53;;;;;;;;;;4235385;33;20472;-76
2023/06/14 16:06:19;;;;;;;17.62;6.75;;;;;;;;;;4221638;33;20101;-79
2023/06/14 16:08:45;;;;;;;14.80;7.57;;;;;;;;;;4222824;33;20059;-77
2023/06/14 16:11:12;;;;;;;9.75;6.82;;;;;;;;;;4222863;33;20432;-78
2023/06/14 16:13:40;;;;;;;18.60;6.68;;;;;;;;;;4222837;33;20070;-77
2023/06/14 16:16:08;;;;;;;14.45;7.40;;;;;;;;;;4222379;33;20055;-78
2023/06/14 16:18:35;;;;;;;15.10;7.50;;;;;;;;;;4219078;33;20043;-77
2023/06/14 16:21:01;;;;;;;15.07;7.30;;;;;;;;;;4223294;34;20534;-78
2023/06/14 16:23:27;;;;;;;15.70;7.57;;;;;;;;;;4221249;33;20408;-78
2023/06/14 16:25:54;;;;;;;9.98;6.97;;;;;;;;;;4223798;33;20082;-77
2023/06/14 16:28:20;;;;;;;11.38;7.68;;;;;;;;;;4219676;33;20035;-79
2023/06/14 16:30:47;;;;;;;13.00;7.97;;;;;;;;;;4208821;34;20974;-78
2023/06/14 16:33:13;;;;;;;16.85;8.68;;;;;;;;;;4220075;33;20092;-77
2023/06/14 16:35:39;;;;;;;11.85;8.13;;;;;;;;;;4235723;33;20480;-79
2023/06/14 16:38:05;;;;;;;12.37;7.97;;;;;;;;;;4259359;33;20114;-78
2023/06/14 16:40:32;;;;;;;11.32;8.23;;;;;;;;;;4263009;33;20235;-77
2023/06/14 16:42:58;;;;;;;14.63;8.27;;;;;;;;;;4265028;33;20111;-77